SÍGUENOS

APP INUMET

Disponible en Google Play

Productos aeronáuticos

  • SIGMET
  • METAR / SPECI
  • TAF
  • AIREP
  • Aviso de aeródromo
  • Pronárea
  • Carta superficie

Mensajes METAR de la última hora

SUAA 251300Z 06006KT CAVOK 17/14 Q1021
SUCA 251300Z 07004KT CAVOK 19/16 Q1018
SUDU 251300Z 06005KT CAVOK 17/15 Q1020
SULS 251300Z 04003KT 360V100 9999 SCT023 SCT070 BKN200 17/14 Q1021
SUMU 251300Z 04004KT CAVOK 19/15 Q1020 NOSIG
SUSO 251300Z 16006KT 9999 SCT008 OVC200 20/18 Q1019

Mensajes METAR de la última hora - Internacionales


Argentina
SAAR 251300Z 07005KT CAVOK 22/15 Q1020
SABE 251300Z 07005KT CAVOK 19/15 Q1020
SACO 251300Z 15003KT 130V220 9000 NSC 21/15 Q1020
SAEZ 251300Z 11003KT CAVOK 20/16 Q1020
SAME 251300Z 18007KT CAVOK 21/05 Q1021
Bolivia
SLCP 251300Z 00000KT 3000 FU OVC070 26/21 Q1017
SLLP 251300Z 08006KT 6000 FEW010 08/01 Q1040
Brasil
SBBR 251300Z 05011G22KT 020V080 CAVOK 24/10 Q1022
SBFI 251300Z 09008KT CAVOK 25/16 Q1019
SBFL 251300Z VRB02KT 8000 3500S -RA FEW004 BKN012 BKN018 20/19 Q1025
SBGR 251300Z 04009KT 9999 BKN023 21/15 Q1025
SBPA 251300Z 09007KT CAVOK 23/17 Q1021
SBRJ 251300Z 14005KT 8000 SCT015 25/19 Q1023
SBSP 251300Z 09008KT 060V120 9000 BKN027 21/13 Q1026
Chile
SCCI 251300Z 25027G38KT 9999 SCT032 04/M02 Q1010 NOSIG
SCEL 251300Z 01007KT 9999 BKN150 SCT230 12/08 Q1020 NOSIG
Ecuador
SEQM 251300Z 17002KT 9999 BKN030 BKN070 14/12 Q1027 NOSIG RMK A3034
EEUU
KMIA 251253Z 00000KT 10SM FEW025 SCT043 BKN050 28/24 A2991 RMK AO2 SLP130 CB DSNT SE-SW MOV E T02780244
KDCA 251252Z 06003KT 10SM SCT250 24/21 A3007 RMK AO2 SLP181 T02440206
KIAD 251252Z 00000KT 9SM FEW250 23/21 A3007 RMK AO2 SLP181 T02280206
KJFK 251251Z 16005KT 10SM FEW250 23/19 A3008 RMK AO2 SLP186 T02280194
KLGA 251251Z 04005KT 10SM CLR 24/19 A3007 RMK AO2 SLP181 T02440189
Francia
LFPO 251300Z 19003KT 150V210 CAVOK 19/13 Q1018 NOSIG
LFPO 251230Z VRB03KT CAVOK 19/12 Q1018 NOSIG
Paraguay
SGAS 251300Z 07009KT 030V110 CAVOK 28/17 Q1016
SGAS 251230Z 07008KT 030V110 CAVOK 27/18 Q1016
Venezuela
SVMI 251256Z 09003KT 9999 FEW016 28/23 Q1011

* Datos extraidos del Text DataServer de la NOAA (NOAA TEXT DATA SERVER)

Instituto Uruguayo de Meteorología

Dr. Javier Barrios Amorín 1488 - CP 11200
Mesa Central (598) 1895

Montevideo - Uruguay